Pagrindinis puslapis
METAR-TAF:

METAR-TAF

Oro uostai :

Phuketas, Tailandas

platuma: 08-07N, ilguma: 098-19E, Aukštis: 6 m

Dabartinis oras

Ataskaita buvo paskelbta 35 minutes, ne 20:30 UTC
Ramus vėjas
Temperatūra 24°C
Drėgmė 94%
Slėgis 1012 hPa
Matomumas: 8000 m
Mažai debesys ne aukštis 2000 ft

METAR: VTSP 172030Z 00000KT 8000 FEW020 24/23 Q1012 NOSIG

Laikas: 04:05 (21:05 UTC)

Prognozė

Ataskaita buvo paskelbta 4 valandos ir 5 minutes, ne 17:00 UTC
Prognozė galioja nuo 17 metu 18 UTC su 18 metu 24 UTC
Vėjas kt iš Šiaurės
Matomumas 10 km arba daugiau
Išsisklaidę debesys ne aukštis 2000 ft
Tapsmas
nuo 18 metu 02 UTC su 18 metu 04 UTC
Vėjas 8 kt iš Vakarų
Tapsmas
nuo 18 metu 14 UTC su 18 metu 16 UTC
Vėjas kt iš Šiaurės

TAF: VTSP 171700Z 1718/1824 00000KT 9999 SCT020 BECMG 1802/1804 28008KT BECMG 1814/1816 00000KT

Orai ataskaitas ir orų prognozės (METAR, TAF).

turimą stotys yra geltonos ir raudonos taškus žemėlapyje.

Perkelti pele per norėdami pamatyti stoties vardą.

Tada spustelėkite, norėdami matyti oro stebėjimo ir prognozės.

Norėdami pakeisti žemėlapį: spustelėkite ant žalios mygtukų su juodo kryžiaus žemyn,; žalią mygtuką su brūkšneliu, jei norite nutolinti; arba žalių rodyklių gretimoms žemėlapius.


METAR-TAF: